Time;durP1;ratioP1;P1;durP2;ratioP2;P2;SDS_P1;SDS_P2;PMS_P1;PMS_P2;Temp;Humidity;BMP_temperature;BMP_pressure;BME280_temperature;BME280_humidity;BME280_pressure;Samples;Min_cycle;Max_cycle;Signal;HPM_P1;HPM_P2
2022/01/15 00:01:14;;;;;;;171.85;37.00;;;;;;;4.02;100.00;103423.59;5022626;28;20037;-75
2022/01/15 00:03:39;;;;;;;158.25;36.33;;;;;;;4.00;100.00;103425.19;5026645;28;20029;-75
2022/01/15 00:06:05;;;;;;;167.05;34.15;;;;;;;4.01;100.00;103421.78;5024915;28;20022;-76
2022/01/15 00:08:30;;;;;;;179.40;34.78;;;;;;;4.01;100.00;103420.88;5016653;28;20120;-76
2022/01/15 00:10:56;;;;;;;180.00;35.35;;;;;;;4.01;100.00;103421.78;5037913;28;20379;-76
2022/01/15 00:13:28;;;;;;;138.45;30.95;;;;;;;3.95;100.00;103418.66;5025052;28;20516;-75
2022/01/15 00:16:05;;;;;;;163.10;30.83;;;;;;;3.95;100.00;103421.28;5026572;28;20076;-75
2022/01/15 00:19:03;;;;;;;151.80;30.63;;;;;;;3.93;100.00;103417.59;5017155;28;20470;-76
2022/01/15 00:21:29;;;;;;;148.05;31.02;;;;;;;3.91;100.00;103411.38;5028162;28;20489;-75
2022/01/15 00:23:55;;;;;;;144.70;30.48;;;;;;;3.87;100.00;103410.19;5025883;28;20033;-75
2022/01/15 00:26:21;;;;;;;142.75;31.73;;;;;;;3.83;100.00;103404.59;5034113;28;20075;-76
2022/01/15 00:28:46;;;;;;;146.52;30.33;;;;;;;3.81;100.00;103398.34;5029711;28;22090;-75
2022/01/15 00:31:12;;;;;;;132.90;29.45;;;;;;;3.78;100.00;103395.47;5026885;28;20083;-76
2022/01/15 00:33:37;;;;;;;156.48;32.30;;;;;;;3.77;100.00;103391.97;5018964;28;20034;-76
2022/01/15 00:36:03;;;;;;;157.80;30.08;;;;;;;3.80;100.00;103391.28;5031713;28;20108;-76
2022/01/15 00:38:28;;;;;;;166.57;31.70;;;;;;;3.79;100.00;103392.09;5017213;28;20046;-76
2022/01/15 00:40:54;;;;;;;184.20;32.60;;;;;;;3.80;100.00;103393.91;5030975;28;20029;-76
2022/01/15 00:43:21;;;;;;;158.70;32.13;;;;;;;3.79;100.00;103385.19;5033927;28;20393;-76
2022/01/15 00:45:47;;;;;;;154.65;30.30;;;;;;;3.77;100.00;103383.22;5031036;28;20040;-76
2022/01/15 00:48:13;;;;;;;147.18;30.92;;;;;;;3.75;100.00;103380.50;5024283;28;20363;-76
2022/01/15 00:50:39;;;;;;;168.40;31.27;;;;;;;3.76;100.00;103381.41;5022508;28;20022;-76
2022/01/15 00:53:04;;;;;;;148.05;32.10;;;;;;;3.79;100.00;103374.75;5024776;28;20363;-76
2022/01/15 00:55:30;;;;;;;165.65;31.45;;;;;;;3.76;100.00;103370.97;5025090;28;20083;-76
2022/01/15 00:57:55;;;;;;;154.23;30.83;;;;;;;3.73;100.00;103371.66;5006027;28;20129;-76
2022/01/15 01:00:22;;;;;;;189.07;32.90;;;;;;;3.69;100.00;103367.88;5027120;28;20033;-74
2022/01/15 01:02:49;;;;;;;158.05;29.35;;;;;;;3.72;100.00;103369.81;5027708;28;20046;-75
2022/01/15 01:05:16;;;;;;;128.50;27.65;;;;;;;3.70;100.00;103371.38;5035246;28;20072;-75
2022/01/15 01:07:41;;;;;;;131.80;28.90;;;;;;;3.64;100.00;103369.16;5030876;28;20504;-75
2022/01/15 01:13:11;;;;;;;166.57;29.17;;;;;;;3.63;100.00;103364.72;5028475;28;20124;-76
2022/01/15 01:23:42;;;;;;;191.65;30.60;;;;;;;3.65;100.00;103337.16;5032041;28;20076;-76
2022/01/15 01:26:12;;;;;;;174.88;29.60;;;;;;;3.67;100.00;103345.09;5028284;28;20053;-76
2022/01/15 01:28:43;;;;;;;176.95;31.02;;;;;;;3.64;100.00;103340.53;5020016;28;20136;-76
2022/01/15 01:31:19;;;;;;;150.95;29.20;;;;;;;3.66;100.00;103341.59;5027633;28;20025;-76
2022/01/15 01:33:49;;;;;;;173.10;30.48;;;;;;;3.62;100.00;103344.69;5016627;28;20057;-75
2022/01/15 01:36:23;;;;;;;155.10;30.30;;;;;;;3.61;100.00;103340.28;5026384;28;20057;-75
2022/01/15 01:41:18;;;;;;;151.95;29.80;;;;;;;3.59;100.00;103331.41;5022761;28;20029;-75
2022/01/15 01:43:49;;;;;;;150.13;28.42;;;;;;;3.57;100.00;103332.97;5032415;28;20025;-75
2022/01/15 01:46:31;;;;;;;149.45;29.08;;;;;;;3.52;100.00;103329.06;5031639;28;20504;-75
2022/01/15 01:48:59;;;;;;;143.20;29.25;;;;;;;3.48;100.00;103327.88;5021128;28;20056;-76
2022/01/15 01:51:39;;;;;;;147.93;28.80;;;;;;;3.46;100.00;103333.72;5023664;28;20557;-75
2022/01/15 01:54:06;;;;;;;145.45;28.23;;;;;;;3.46;100.00;103328.53;5024820;28;20470;-75
2022/01/15 01:56:34;;;;;;;137.95;27.73;;;;;;;3.46;100.00;103320.72;5023747;28;20060;-75
2022/01/15 01:58:59;;;;;;;150.30;29.90;;;;;;;3.48;100.00;103316.56;5027817;28;20065;-75
2022/01/15 02:01:25;;;;;;;172.23;28.60;;;;;;;3.48;100.00;103311.38;5024111;28;20075;-75
2022/01/15 02:03:51;;;;;;;166.23;28.27;;;;;;;3.50;100.00;103315.00;5022101;28;20069;-77
2022/01/15 02:06:17;;;;;;;171.32;28.90;;;;;;;3.51;100.00;103306.41;5029986;28;20113;-75
2022/01/15 02:08:43;;;;;;;131.30;27.42;;;;;;;3.52;100.00;103305.63;5025355;28;20028;-75
2022/01/15 02:11:09;;;;;;;146.10;27.98;;;;;;;3.48;100.00;103296.66;5017485;28;20545;-76
2022/01/15 02:13:39;;;;;;;183.98;30.02;;;;;;;3.50;100.00;103299.38;5015784;28;20046;-75
2022/01/15 02:16:05;;;;;;;136.75;27.63;;;;;;;3.48;100.00;103301.84;5029522;28;20025;-75
2022/01/15 02:18:30;;;;;;;149.07;28.45;;;;;;;3.48;100.00;103303.56;5029941;28;20034;-76
2022/01/15 02:23:34;;;;;;;170.93;27.75;;;;;;;3.50;100.00;103299.38;5024747;28;20053;-75
2022/01/15 02:26:06;;;;;;;140.60;26.83;;;;;;;3.49;100.00;103292.38;5018145;28;20028;-75
2022/01/15 02:28:37;;;;;;;136.23;27.02;;;;;;;3.51;100.00;103291.72;5030754;28;20113;-76
2022/01/15 02:31:06;;;;;;;121.43;26.23;;;;;;;3.47;100.00;103284.44;5028821;28;20034;-75
2022/01/15 02:33:31;;;;;;;111.75;24.08;;;;;;;3.43;100.00;103281.41;5019567;28;20030;-76
2022/01/15 02:35:58;;;;;;;123.75;23.80;;;;;;;3.43;100.00;103276.22;5015879;28;20080;-76
2022/01/15 02:38:24;;;;;;;132.13;25.92;;;;;;;3.43;100.00;103276.22;5018466;28;20064;-76
2022/01/15 02:40:50;;;;;;;127.35;24.42;;;;;;;3.40;100.00;103270.75;5026229;28;20057;-76
2022/01/15 02:43:19;;;;;;;137.13;26.75;;;;;;;3.39;100.00;103264.63;5021939;28;20036;-76
2022/01/15 02:45:55;;;;;;;149.55;26.15;;;;;;;3.38;100.00;103255.91;5030236;28;20030;-76
2022/01/15 02:48:25;;;;;;;161.65;28.63;;;;;;;3.38;100.00;103250.72;5029086;28;20060;-76
2022/01/15 02:50:51;;;;;;;143.75;28.10;;;;;;;3.38;100.00;103250.72;5019413;28;20045;-76
2022/01/15 02:53:17;;;;;;;118.47;25.40;;;;;;;3.36;100.00;103247.09;5026253;28;20048;-76
2022/01/15 02:55:44;;;;;;;135.55;25.73;;;;;;;3.35;100.00;103253.06;5014556;28;20026;-76
2022/01/15 02:58:09;;;;;;;103.88;22.92;;;;;;;3.30;100.00;103243.94;5018469;28;20022;-76
2022/01/15 03:00:35;;;;;;;101.32;23.50;;;;;;;3.25;100.00;103245.25;5026114;28;20029;-76
2022/01/15 03:03:00;;;;;;;122.38;24.17;;;;;;;3.24;100.00;103248.63;5017281;28;20402;-76
2022/01/15 03:05:26;;;;;;;109.22;22.88;;;;;;;3.23;100.00;103246.81;5024792;28;20116;-76
2022/01/15 03:07:51;;;;;;;118.07;24.83;;;;;;;3.25;100.00;103244.34;5025291;28;20042;-76
2022/01/15 03:10:16;;;;;;;137.10;25.13;;;;;;;3.22;100.00;103239.78;5023773;28;20153;-76
2022/01/15 03:12:42;;;;;;;128.43;24.75;;;;;;;3.24;100.00;103232.09;5032110;28;20378;-76
2022/01/15 03:15:08;;;;;;;135.27;25.67;;;;;;;3.23;100.00;103231.22;5030686;28;20017;-75
2022/01/15 03:17:34;;;;;;;114.32;23.55;;;;;;;3.20;100.00;103225.72;5025410;28;20030;-76
2022/01/15 03:20:02;;;;;;;126.57;23.00;;;;;;;3.17;100.00;103228.06;5024976;28;20594;-76
2022/01/15 03:22:28;;;;;;;99.30;20.65;;;;;;;3.13;100.00;103228.59;5016109;28;20053;-77
2022/01/15 03:24:53;;;;;;;108.68;23.27;;;;;;;3.09;100.00;103242.13;5028327;28;20452;-75
2022/01/15 03:27:23;;;;;;;101.70;21.15;;;;;;;3.07;100.00;103228.09;5032287;28;20415;-75
2022/01/15 03:29:49;;;;;;;113.25;20.60;;;;;;;3.01;100.00;103226.78;5027111;28;20048;-76
2022/01/15 03:32:14;;;;;;;106.40;21.30;;;;;;;3.01;100.00;103218.97;5027561;28;20037;-75
2022/01/15 03:34:40;;;;;;;110.97;22.45;;;;;;;2.99;100.00;103215.31;5025734;28;20159;-75
2022/01/15 03:37:05;;;;;;;107.00;21.38;;;;;;;3.02;100.00;103215.56;5033540;28;20479;-76
2022/01/15 03:39:30;;;;;;;110.82;23.85;;;;;;;2.98;100.00;103210.88;5020457;28;20049;-76
2022/01/15 03:41:56;;;;;;;115.38;21.35;;;;;;;2.97;100.00;103205.56;5017374;28;20202;-76
2022/01/15 03:44:21;;;;;;;104.88;21.05;;;;;;;2.96;100.00;103204.66;5019966;28;20030;-76
2022/01/15 03:46:46;;;;;;;127.82;20.83;;;;;;;2.98;100.00;103203.06;5018193;28;20045;-75
2022/01/15 03:49:12;;;;;;;117.20;21.05;;;;;;;2.98;100.00;103210.88;5030385;28;20069;-76
2022/01/15 03:51:37;;;;;;;122.72;20.65;;;;;;;2.97;100.00;103211.69;5031217;28;20030;-76
2022/01/15 03:54:03;;;;;;;96.10;21.23;;;;;;;3.00;100.00;103201.53;5016125;28;20048;-76
2022/01/15 03:56:30;;;;;;;99.93;22.30;;;;;;;3.01;100.00;103200.75;5028201;28;20036;-75
2022/01/15 03:58:56;;;;;;;97.13;21.23;;;;;;;2.98;100.00;103196.97;5029043;28;20029;-76
2022/01/15 04:01:21;;;;;;;112.88;21.05;;;;;;;2.98;100.00;103200.47;5023787;28;20040;-75
2022/01/15 04:03:46;;;;;;;118.10;22.52;;;;;;;2.98;100.00;103195.28;5026851;28;20060;-76
2022/01/15 04:06:12;;;;;;;115.75;23.73;;;;;;;3.00;100.00;103190.22;5031173;28;20048;-76
2022/01/15 04:08:37;;;;;;;134.43;23.67;;;;;;;2.96;100.00;103181.25;5016274;28;20125;-76
2022/01/15 04:11:02;;;;;;;119.10;24.67;;;;;;;2.97;100.00;103180.47;5018217;28;20021;-76
2022/01/15 04:13:28;;;;;;;146.75;25.83;;;;;;;2.95;100.00;103176.81;5027189;28;20026;-76
2022/01/15 04:15:53;;;;;;;106.00;22.70;;;;;;;3.00;100.00;103179.81;5031265;28;20028;-76
2022/01/15 04:18:21;;;;;;;103.55;21.38;;;;;;;3.00;100.00;103175.53;5017270;28;20540;-76
2022/01/15 04:20:48;;;;;;;105.82;20.98;;;;;;;3.00;100.00;103174.63;5025586;28;20040;-75
2022/01/15 04:23:13;;;;;;;106.45;19.70;;;;;;;2.99;100.00;103171.09;5032583;28;20032;-75
2022/01/15 04:25:39;;;;;;;115.82;22.63;;;;;;;2.96;100.00;103163.03;5030849;28;20029;-75
2022/01/15 04:28:09;;;;;;;111.10;24.50;;;;;;;2.95;100.00;103170.72;5030147;28;20037;-75
2022/01/15 04:30:35;;;;;;;117.32;24.35;;;;;;;2.94;100.00;103166.28;5025253;28;20045;-75
2022/01/15 04:33:01;;;;;;;118.93;24.83;;;;;;;2.93;100.00;103165.38;5022866;28;20072;-75
2022/01/15 04:35:26;;;;;;;175.38;25.42;;;;;;;2.92;100.00;103153.16;5030022;28;20022;-76
2022/01/15 04:38:00;;;;;;;115.85;24.33;;;;;;;2.92;100.00;103160.06;5032716;28;20037;-75
2022/01/15 04:40:25;;;;;;;;;;;;;;;2.88;100.00;103156.28;5031288;28;20041;-76
2022/01/15 04:42:51;;;;;;;120.50;21.40;;;;;;;2.89;100.00;103154.56;5030033;28;19935;-76
2022/01/15 04:45:16;;;;;;;96.75;21.77;;;;;;;2.85;100.00;103143.03;5029766;28;20045;-75
2022/01/15 04:47:41;;;;;;;119.72;23.90;;;;;;;2.80;100.00;103144.31;5018586;28;20509;-76
2022/01/15 04:50:16;;;;;;;101.10;21.30;;;;;;;2.78;100.00;103152.00;5019876;28;20038;-76
2022/01/15 04:52:42;;;;;;;116.00;22.25;;;;;;;2.78;100.00;103162.38;5022941;28;20429;-75
2022/01/15 04:55:09;;;;;;;101.40;21.80;;;;;;;2.76;100.00;103155.22;5042308;28;20040;-77
2022/01/15 04:57:35;;;;;;;115.82;22.20;;;;;;;2.72;100.00;103145.34;5021630;28;20048;-77
2022/01/15 05:00:01;;;;;;;123.90;23.85;;;;;;;2.73;100.00;103136.75;5027488;28;20473;-77
2022/01/15 05:02:26;;;;;;;128.05;21.55;;;;;;;2.72;100.00;103135.84;5032348;28;20088;-75
2022/01/15 05:04:51;;;;;;;110.53;22.83;;;;;;;2.74;100.00;103138.56;5035186;28;20033;-76
2022/01/15 05:07:17;;;;;;;159.18;22.33;;;;;;;2.70;100.00;103135.72;5027383;28;20034;-75
2022/01/15 05:09:43;;;;;;;124.95;22.52;;;;;;;2.70;100.00;103127.94;5027655;28;20033;-75
2022/01/15 05:12:12;;;;;;;129.00;22.05;;;;;;;2.71;100.00;103126.22;5022340;28;20112;-76
2022/01/15 05:14:37;;;;;;;109.75;21.13;;;;;;;2.73;100.00;103131.56;5024891;28;20028;-76
2022/01/15 05:17:03;;;;;;;108.65;20.48;;;;;;;2.61;100.00;103119.34;5032021;28;20021;-75
2022/01/15 05:19:29;;;;;;;114.72;20.48;;;;;;;2.58;100.00;103113.88;5023173;28;20030;-75
2022/01/15 05:21:56;;;;;;;94.32;18.25;;;;;;;2.55;100.00;103100.63;5025522;28;20109;-75
2022/01/15 05:24:22;;;;;;;71.03;18.00;;;;;;;2.54;100.00;103098.81;5024639;28;20489;-75
2022/01/15 05:26:48;;;;;;;82.38;17.85;;;;;;;2.51;100.00;103098.56;5029710;28;20021;-75
2022/01/15 05:29:14;;;;;;;105.88;19.30;;;;;;;2.47;100.00;103083.44;5035615;28;20029;-75
2022/01/15 05:31:39;;;;;;;100.15;19.02;;;;;;;2.46;100.00;103095.53;5032909;28;20032;-74
2022/01/15 05:34:05;;;;;;;110.13;20.90;;;;;;;2.42;100.00;103098.66;5028444;28;20025;-75
2022/01/15 05:36:31;;;;;;;100.40;18.42;;;;;;;2.35;100.00;103089.41;5020497;28;20030;-75
2022/01/15 05:38:56;;;;;;;96.10;18.40;;;;;;;2.35;100.00;103091.13;5014744;28;20116;-76
2022/01/15 05:41:22;;;;;;;99.15;20.63;;;;;;;2.34;100.00;103090.19;5024998;28;20021;-76
2022/01/15 05:43:47;;;;;;;83.40;19.60;;;;;;;2.35;100.00;103084.22;5032188;28;20099;-76
2022/01/15 05:46:13;;;;;;;113.93;20.70;;;;;;;2.38;100.00;103075.78;5033184;28;20029;-76
2022/01/15 05:48:38;;;;;;;104.65;20.42;;;;;;;2.41;100.00;103082.94;5001391;28;20026;-77
2022/01/15 05:51:04;;;;;;;110.68;19.55;;;;;;;2.38;100.00;103070.59;5034149;28;20397;-76
2022/01/15 05:53:29;;;;;;;76.88;18.52;;;;;;;2.41;100.00;103075.13;5027940;28;20040;-76
2022/01/15 05:55:55;;;;;;;101.82;18.25;;;;;;;2.36;100.00;103072.13;5026792;28;20025;-76
2022/01/15 05:58:20;;;;;;;139.18;21.17;;;;;;;2.32;100.00;103064.84;5029574;28;20025;-76
2022/01/15 06:00:45;;;;;;;131.80;20.60;;;;;;;2.24;100.00;103065.88;5029483;28;20386;-76
2022/01/15 06:03:11;;;;;;;103.32;19.55;;;;;;;2.23;100.00;103064.97;5030126;28;20040;-76
2022/01/15 06:05:36;;;;;;;108.72;19.30;;;;;;;2.21;100.00;103057.84;5026303;28;20155;-76
2022/01/15 06:08:01;;;;;;;94.70;17.08;;;;;;;2.18;100.00;103053.28;5017714;28;20378;-75
2022/01/15 06:10:27;;;;;;;83.40;19.00;;;;;;;2.18;100.00;103055.88;5021916;28;20029;-76
2022/01/15 06:12:52;;;;;;;114.90;20.67;;;;;;;2.18;100.00;103061.06;5030671;28;20436;-76
2022/01/15 06:15:18;;;;;;;178.80;21.33;;;;;;;2.17;100.00;103057.56;5028281;28;20458;-76
2022/01/15 06:17:44;;;;;;;203.25;22.45;;;;;;;2.17;100.00;103049.78;5028898;28;20029;-76
2022/01/15 06:20:11;;;;;;;205.23;23.08;;;;;;;2.16;100.00;103053.16;5024059;28;20044;-76
2022/01/15 06:22:37;;;;;;;162.75;23.50;;;;;;;2.14;100.00;103054.72;5030397;28;20083;-76
2022/01/15 06:25:04;;;;;;;153.82;23.30;;;;;;;2.12;100.00;103052.75;5020102;28;20422;-76
2022/01/15 06:27:30;;;;;;;161.35;21.67;;;;;;;2.14;100.00;103044.34;5027886;28;20030;-76
2022/01/15 06:29:56;;;;;;;105.55;21.08;;;;;;;2.15;100.00;103050.44;5019016;28;20025;-76
2022/01/15 06:32:26;;;;;;;105.35;20.73;;;;;;;2.13;100.00;103047.69;5031652;28;20054;-76
2022/01/15 06:34:51;;;;;;;119.47;20.92;;;;;;;2.13;100.00;103051.97;5029256;28;20030;-76
2022/01/15 06:37:18;;;;;;;123.93;22.13;;;;;;;2.13;100.00;103057.16;5017574;28;20036;-75
2022/01/15 06:39:44;;;;;;;118.10;21.40;;;;;;;2.14;100.00;103054.72;5022157;28;20137;-76
2022/01/15 06:42:09;;;;;;;123.88;24.10;;;;;;;2.16;100.00;103052.25;5024653;28;20518;-76
2022/01/15 06:44:35;;;;;;;135.57;23.05;;;;;;;2.11;100.00;103053.53;5017255;28;20489;-76
2022/01/15 06:47:00;;;;;;;119.78;22.80;;;;;;;2.13;100.00;103051.97;5013331;28;20444;-77
2022/01/15 06:49:25;;;;;;;89.85;22.42;;;;;;;2.15;100.00;103050.44;5018332;28;20025;-74
2022/01/15 06:51:51;;;;;;;99.28;21.85;;;;;;;2.16;100.00;103041.88;5025523;28;20026;-75
2022/01/15 06:54:16;;;;;;;109.00;22.95;;;;;;;2.16;100.00;103047.06;5028958;28;20124;-75
2022/01/15 06:56:42;;;;;;;119.50;24.08;;;;;;;2.15;100.00;103042.63;5026610;28;20036;-75
2022/01/15 06:59:07;;;;;;;90.63;21.27;;;;;;;2.17;100.00;103054.03;5026119;28;20105;-75
2022/01/15 07:01:33;;;;;;;125.25;22.20;;;;;;;2.15;100.00;103046.13;5025426;28;20105;-75
2022/01/15 07:03:58;;;;;;;117.38;24.45;;;;;;;2.12;100.00;103047.56;5025119;28;20025;-75
2022/01/15 07:06:24;;;;;;;159.45;24.98;;;;;;;2.10;100.00;103046.50;5023580;28;20038;-75
2022/01/15 07:08:49;;;;;;;105.13;24.38;;;;;;;2.12;100.00;103052.75;5018964;28;20041;-76
2022/01/15 07:11:14;;;;;;;127.15;24.77;;;;;;;2.12;100.00;103055.38;5018996;28;20021;-76
2022/01/15 07:13:40;;;;;;;160.20;26.05;;;;;;;2.14;100.00;103051.19;5029157;28;20118;-75
2022/01/15 07:16:05;;;;;;;103.93;24.48;;;;;;;2.16;100.00;103053.16;5029578;28;20017;-76
2022/01/15 07:18:32;;;;;;;93.03;23.38;;;;;;;2.18;100.00;103046.41;5026080;28;20033;-76
2022/01/15 07:20:57;;;;;;;113.07;25.48;;;;;;;2.16;100.00;103052.25;5031032;28;20075;-76
2022/01/15 07:23:22;;;;;;;129.88;24.55;;;;;;;2.16;100.00;103052.25;5024906;28;20108;-76
2022/01/15 07:25:48;;;;;;;108.25;25.58;;;;;;;2.16;100.00;103042.75;5013383;28;20033;-75
2022/01/15 07:28:13;;;;;;;154.93;28.85;;;;;;;2.16;100.00;103049.66;5029679;28;20179;-76
2022/01/15 07:30:39;;;;;;;138.63;29.23;;;;;;;2.16;100.00;103036.66;5025797;28;20096;-76
2022/01/15 07:33:04;;;;;;;103.38;26.90;;;;;;;2.16;100.00;103039.25;5016713;28;20034;-76
2022/01/15 07:35:30;;;;;;;146.70;30.13;;;;;;;2.18;100.00;103033.44;5014386;28;20402;-75
2022/01/15 07:37:56;;;;;;;189.00;30.67;;;;;;;2.20;100.00;103033.56;5026176;28;20117;-75
2022/01/15 07:40:22;;;;;;;164.23;30.52;;;;;;;2.16;100.00;103029.78;5022987;28;20046;-75
2022/01/15 07:42:47;;;;;;;187.80;31.17;;;;;;;2.16;100.00;103031.47;5020672;28;20037;-75
2022/01/15 07:45:15;;;;;;;166.20;30.88;;;;;;;2.15;100.00;103029.66;5032097;28;20470;-76
2022/01/15 07:47:42;;;;;;;156.45;29.52;;;;;;;2.19;100.00;103032.63;5019704;28;20038;-75
2022/01/15 07:50:11;;;;;;;199.75;33.33;;;;;;;2.22;100.00;103031.09;5029686;28;20041;-75
2022/01/15 07:52:36;;;;;;;157.18;31.42;;;;;;;2.23;100.00;103026.03;5024678;28;20482;-75
2022/01/15 07:55:03;;;;;;;142.73;31.48;;;;;;;2.24;100.00;103034.72;5031987;28;20075;-77
2022/01/15 07:57:29;;;;;;;142.18;31.58;;;;;;;2.25;100.00;103031.34;5018716;28;20037;-76
2022/01/15 07:59:55;;;;;;;177.73;31.80;;;;;;;2.26;100.00;103028.88;5023660;28;20032;-76
2022/01/15 08:02:21;;;;;;;170.32;30.38;;;;;;;2.29;100.00;103023.03;5025713;28;20430;-74
2022/01/15 08:04:46;;;;;;;161.65;32.17;;;;;;;2.30;100.00;103020.56;5028171;28;20083;-74
2022/01/15 08:07:12;;;;;;;132.77;28.17;;;;;;;2.29;100.00;103018.75;5031113;28;20029;-74
2022/01/15 08:09:38;;;;;;;134.20;31.77;;;;;;;2.29;100.00;103018.75;5019261;28;20041;-73
2022/01/15 08:12:04;;;;;;;135.57;30.48;;;;;;;2.29;100.00;103018.75;5023321;28;20063;-73
2022/01/15 08:14:29;;;;;;;129.10;29.92;;;;;;;2.29;100.00;103016.16;5029512;28;20406;-74
2022/01/15 08:16:55;;;;;;;140.73;30.95;;;;;;;2.28;100.00;103019.53;5025459;28;20029;-75
2022/01/15 08:19:20;;;;;;;127.22;30.25;;;;;;;2.27;100.00;103014.22;5027030;28;20036;-74
2022/01/15 08:21:46;;;;;;;128.57;29.75;;;;;;;2.22;100.00;103015.50;5027741;28;20036;-74
2022/01/15 08:24:11;;;;;;;142.32;31.92;;;;;;;2.21;100.00;103009.38;5033188;28;20108;-74
2022/01/15 08:26:37;;;;;;;140.27;29.65;;;;;;;2.24;100.00;103004.47;5030505;28;20104;-75
2022/01/15 08:29:02;;;;;;;139.05;33.45;;;;;;;2.25;100.00;103000.16;5032971;28;20018;-74
2022/01/15 08:31:28;;;;;;;170.02;32.92;;;;;;;2.29;100.00;103000.59;5029299;28;20115;-73
2022/01/15 08:33:53;;;;;;;158.07;31.00;;;;;;;2.29;100.00;103003.19;5030452;28;20034;-75
2022/01/15 08:36:20;;;;;;;176.55;29.65;;;;;;;2.30;100.00;103004.97;5034697;28;20033;-75
2022/01/15 08:38:46;;;;;;;181.40;32.15;;;;;;;2.32;100.00;103003.44;5032010;28;20049;-74
2022/01/15 08:41:13;;;;;;;182.05;35.42;;;;;;;2.32;100.00;103005.09;5020664;28;20029;-74
2022/01/15 08:43:39;;;;;;;229.82;33.20;;;;;;;2.31;100.00;102996.41;5027928;28;20109;-73
2022/01/15 08:46:04;;;;;;;155.70;31.30;;;;;;;2.33;100.00;103000.06;5028584;28;20319;-74
2022/01/15 08:48:29;;;;;;;148.45;31.38;;;;;;;2.32;100.00;102997.31;5034689;28;20032;-74
2022/01/15 08:50:55;;;;;;;146.57;32.33;;;;;;;2.30;100.00;102994.56;5036500;28;20025;-73
2022/01/15 08:53:21;;;;;;;178.75;32.13;;;;;;;2.31;100.00;102996.41;5034743;28;20029;-73
2022/01/15 08:55:47;;;;;;;136.25;31.65;;;;;;;2.34;100.00;102990.56;5036560;28;20026;-74
2022/01/15 08:58:13;;;;;;;177.63;32.50;;;;;;;2.32;100.00;102997.31;5036875;28;20464;-73
2022/01/15 09:00:39;;;;;;;189.27;32.13;;;;;;;2.33;100.00;102993.94;5035898;28;20030;-74
2022/01/15 09:03:06;;;;;;;211.20;37.38;;;;;;;2.35;100.00;102997.59;5036583;28;20029;-74
2022/01/15 09:05:34;;;;;;;179.02;32.67;;;;;;;2.38;100.00;102996.94;5036783;28;20026;-74
2022/01/15 09:08:00;;;;;;;145.05;32.78;;;;;;;2.38;100.00;103000.44;5036137;28;20036;-74
2022/01/15 09:10:25;;;;;;;183.50;34.15;;;;;;;2.42;100.00;103004.22;5033190;28;20112;-74
2022/01/15 09:12:51;;;;;;;170.60;35.15;;;;;;;2.42;100.00;103009.41;5026043;28;20101;-74
2022/01/15 09:15:17;;;;;;;156.80;31.80;;;;;;;2.47;100.00;103002.88;5036071;28;20041;-74
2022/01/15 09:17:43;;;;;;;158.13;31.33;;;;;;;2.49;100.00;103002.25;5027837;28;20030;-74
2022/01/15 09:20:09;;;;;;;153.63;33.40;;;;;;;2.47;100.00;102993.44;5024451;28;20051;-75
2022/01/15 09:22:35;;;;;;;178.90;34.53;;;;;;;2.50;100.00;103001.47;5026389;28;20049;-74
2022/01/15 09:25:00;;;;;;;170.55;33.88;;;;;;;2.48;100.00;102994.31;5035848;28;20032;-75
2022/01/15 09:30:15;;;;;;;175.77;31.08;;;;;;;2.50;100.00;102993.66;5025187;28;20490;-74
2022/01/15 09:32:45;;;;;;;151.63;33.28;;;;;;;2.50;100.00;102995.38;5031420;28;20025;-75
2022/01/15 09:35:12;;;;;;;167.35;31.73;;;;;;;2.48;100.00;102994.31;5026835;28;20033;-74
2022/01/15 09:37:38;;;;;;;173.48;31.42;;;;;;;2.49;100.00;102993.53;5034401;28;20512;-75
2022/01/15 09:40:05;;;;;;;151.05;27.65;;;;;;;2.50;100.00;102998.88;5030927;28;20046;-74
2022/01/15 09:42:30;;;;;;;168.70;32.47;;;;;;;2.51;100.00;102994.59;5035592;28;20029;-74
2022/01/15 09:44:56;;;;;;;161.32;32.47;;;;;;;2.52;100.00;102996.41;5035436;28;20033;-74
2022/01/15 09:47:23;;;;;;;193.93;31.65;;;;;;;2.53;100.00;102993.03;5029752;28;20061;-73
2022/01/15 09:49:49;;;;;;;172.70;32.33;;;;;;;2.55;100.00;102995.75;5033714;28;20068;-77
2022/01/15 09:52:18;;;;;;;155.00;31.00;;;;;;;2.59;100.00;102996.16;5035118;28;20033;-77
2022/01/15 09:54:44;;;;;;;192.23;32.85;;;;;;;2.58;100.00;102996.91;5040266;28;20026;-77
2022/01/15 09:57:09;;;;;;;193.95;34.97;;;;;;;2.59;100.00;102998.75;5036225;28;20037;-76
2022/01/15 09:59:36;;;;;;;188.25;32.40;;;;;;;2.61;100.00;102997.16;5035541;28;20028;-74
2022/01/15 10:02:03;;;;;;;154.00;29.70;;;;;;;2.61;100.00;102991.97;5028459;28;20040;-75
2022/01/15 10:04:32;;;;;;;137.25;29.63;;;;;;;2.60;100.00;102986.66;5033711;28;20025;-75
2022/01/15 10:07:12;;;;;;;143.20;28.35;;;;;;;2.57;100.00;102989.91;5034216;28;20049;-77
2022/01/15 10:09:39;;;;;;;150.95;30.33;;;;;;;2.59;100.00;102993.56;5033738;28;20044;-75
2022/01/15 10:12:05;;;;;;;181.27;30.58;;;;;;;2.58;100.00;102986.53;5043088;28;20029;-76
2022/01/15 10:14:39;;;;;;;149.65;28.38;;;;;;;2.57;100.00;102986.41;5017591;28;20378;-76
2022/01/15 10:17:20;;;;;;;114.22;24.92;;;;;;;2.56;100.00;102985.47;5043376;28;20051;-76
2022/01/15 10:19:46;;;;;;;127.95;25.83;;;;;;;2.56;100.00;102975.06;5025374;28;20052;-76
2022/01/15 10:22:14;;;;;;;115.53;26.88;;;;;;;2.54;100.00;102974.06;5048363;28;20025;-75
2022/01/15 10:24:42;;;;;;;131.68;25.92;;;;;;;2.55;100.00;102978.47;5030244;28;20026;-75
2022/01/15 10:27:21;;;;;;;139.52;27.92;;;;;;;2.55;100.00;102981.09;5017972;28;20038;-75
2022/01/15 10:29:52;;;;;;;131.25;27.33;;;;;;;2.52;100.00;102976.53;5024283;28;20438;-74
2022/01/15 10:32:17;;;;;;;115.30;27.13;;;;;;;2.53;100.00;102982.63;5016000;28;20398;-75
2022/01/15 10:34:44;;;;;;;122.97;26.67;;;;;;;2.52;100.00;102981.72;5019877;28;20024;-76
2022/01/15 10:37:16;;;;;;;113.70;24.38;;;;;;;2.52;100.00;102978.19;5034799;28;20033;-77
2022/01/15 10:39:57;;;;;;;104.53;25.42;;;;;;;2.55;100.00;102969.75;5033027;28;20049;-74
2022/01/15 10:42:23;;;;;;;117.05;25.25;;;;;;;2.58;100.00;102973.53;5023202;28;20033;-75
2022/01/15 10:44:54;;;;;;;102.13;25.10;;;;;;;2.64;100.00;102978.31;5032121;28;20044;-74
2022/01/15 10:47:23;;;;;;;106.63;26.05;;;;;;;2.62;100.00;102967.81;5027705;28;20037;-72
2022/01/15 10:49:49;;;;;;;112.70;27.45;;;;;;;2.60;100.00;102969.34;5030041;28;20464;-72
2022/01/15 10:52:25;;;;;;;103.45;24.90;;;;;;;2.62;100.00;102966.88;5034681;28;20033;-73
2022/01/15 10:54:57;;;;;;;107.25;24.83;;;;;;;2.62;100.00;102967.81;5034590;28;20025;-71
2022/01/15 10:57:34;;;;;;;97.40;25.10;;;;;;;2.63;100.00;102964.44;5028036;28;20025;-72
2022/01/15 11:00:12;;;;;;;108.88;25.65;;;;;;;2.66;100.00;102963.78;5031680;28;20047;-72
2022/01/15 11:02:39;;;;;;;90.90;25.77;;;;;;;2.65;100.00;102959.34;5029984;28;20075;-72
2022/01/15 11:05:45;;;;;;;88.20;25.17;;;;;;;2.64;100.00;102960.13;5024771;28;20045;-72
2022/01/15 11:08:19;;;;;;;90.68;24.55;;;;;;;2.64;100.00;102961.03;4992204;28;20092;-72
2022/01/15 11:10:47;;;;;;;85.00;23.50;;;;;;;2.64;100.00;102963.63;4991395;28;20054;-72
2022/01/15 11:13:15;;;;;;;85.90;24.38;;;;;;;2.63;100.00;102954.03;5013468;28;20045;-71
2022/01/15 11:15:46;;;;;;;91.50;24.33;;;;;;;2.64;100.00;102953.22;5032295;28;20032;-70
2022/01/15 11:18:17;;;;;;;94.78;25.17;;;;;;;2.68;100.00;102951.81;5033221;28;20029;-71
2022/01/15 11:20:46;;;;;;;97.60;25.75;;;;;;;2.69;100.00;102948.44;5027026;28;20482;-72